createdAt,value
2018-07-17T00:00:08.180Z,61.12
2018-07-17T00:02:37.308Z,61.03
2018-07-17T00:05:07.680Z,61.08
2018-07-17T00:07:37.031Z,61.48
2018-07-17T00:10:06.563Z,61.53
2018-07-17T00:12:35.626Z,61.88
2018-07-17T00:15:04.971Z,61.67
2018-07-17T00:17:34.740Z,61.81
2018-07-17T00:20:03.828Z,61.65
2018-07-17T00:22:32.900Z,61.47
2018-07-17T00:25:01.984Z,61.89
2018-07-17T00:27:31.048Z,61.87
2018-07-17T00:30:00.129Z,62.10
2018-07-17T00:32:29.184Z,62.84
2018-07-17T00:34:58.285Z,62.83
2018-07-17T00:37:27.348Z,62.96
2018-07-17T00:39:56.468Z,63.74
2018-07-17T00:42:25.548Z,63.75
2018-07-17T00:44:54.621Z,63.81
2018-07-17T00:47:23.717Z,63.29
2018-07-17T00:49:52.776Z,63.26
2018-07-17T00:52:21.884Z,63.01
2018-07-17T00:54:50.948Z,62.96
2018-07-17T00:57:20.056Z,63.32
2018-07-17T00:59:49.152Z,63.46
2018-07-17T01:02:23.744Z,63.73
2018-07-17T01:04:58.108Z,63.30
2018-07-17T01:07:32.448Z,63.97
2018-07-17T01:10:06.836Z,64.77
2018-07-17T01:12:35.127Z,64.91
2018-07-17T01:15:07.368Z,64.74
2018-07-17T01:17:37.119Z,64.89
2018-07-17T01:20:06.400Z,65.50
2018-07-17T01:22:35.513Z,65.74
2018-07-17T01:25:04.643Z,65.04
2018-07-17T01:27:33.724Z,64.59
2018-07-17T01:30:02.789Z,64.32
2018-07-17T01:32:31.888Z,64.77
2018-07-17T01:35:00.996Z,64.46
2018-07-17T01:37:30.088Z,64.77
2018-07-17T01:39:59.163Z,64.54
2018-07-17T01:42:28.272Z,64.66
2018-07-17T01:44:57.333Z,65.00
2018-07-17T01:47:26.441Z,65.14
2018-07-17T01:49:55.532Z,64.94
2018-07-17T01:52:24.615Z,64.69
2018-07-17T01:54:53.684Z,64.99
2018-07-17T01:57:22.786Z,64.89
2018-07-17T01:59:51.867Z,65.85
2018-07-17T02:02:20.939Z,65.69
2018-07-17T02:04:50.069Z,65.67
2018-07-17T02:07:19.110Z,66.50
2018-07-17T02:09:48.188Z,66.93
2018-07-17T02:12:17.279Z,66.52
2018-07-17T02:14:46.387Z,67.20
2018-07-17T02:17:15.452Z,67.46
2018-07-17T02:19:44.559Z,67.13
2018-07-17T02:22:13.787Z,66.99
2018-07-17T02:24:42.872Z,66.11
2018-07-17T02:27:11.956Z,65.65
2018-07-17T02:29:41.036Z,65.90
2018-07-17T02:32:10.108Z,65.98
2018-07-17T02:34:39.196Z,66.45
2018-07-17T02:37:08.260Z,67.42
2018-07-17T02:39:37.362Z,67.34
2018-07-17T02:42:06.842Z,67.65
2018-07-17T02:44:35.940Z,68.16
2018-07-17T02:47:05.041Z,68.85
2018-07-17T02:49:34.152Z,69.23
2018-07-17T02:52:03.217Z,69.13
2018-07-17T02:54:32.316Z,69.03
2018-07-17T02:57:01.391Z,69.54
2018-07-17T02:59:30.500Z,69.65
2018-07-17T03:01:59.569Z,70.05
2018-07-17T03:04:28.661Z,69.39
2018-07-17T03:06:57.728Z,68.31
2018-07-17T03:09:26.820Z,67.90
2018-07-17T03:11:55.876Z,68.08
2018-07-17T03:14:24.991Z,67.94
2018-07-17T03:16:54.049Z,68.56
2018-07-17T03:19:23.149Z,68.13
2018-07-17T03:21:52.259Z,67.36
2018-07-17T03:24:21.324Z,67.37
2018-07-17T03:26:50.443Z,67.16
2018-07-17T03:29:19.535Z,66.88
2018-07-17T03:31:48.637Z,67.12
2018-07-17T03:34:17.723Z,67.08
2018-07-17T03:36:46.808Z,66.83
2018-07-17T03:39:15.876Z,66.66
2018-07-17T03:41:44.972Z,66.95
2018-07-17T03:44:14.076Z,66.61
2018-07-17T03:46:43.165Z,66.85
2018-07-17T03:49:12.232Z,67.61
2018-07-17T03:51:41.320Z,67.33
2018-07-17T03:54:10.408Z,67.52
2018-07-17T03:56:39.516Z,66.92
2018-07-17T03:59:08.604Z,67.27
2018-07-17T04:01:37.723Z,66.49
2018-07-17T04:04:06.786Z,65.53
2018-07-17T04:06:35.891Z,66.57
2018-07-17T04:09:06.356Z,66.79
2018-07-17T04:11:35.443Z,66.94
2018-07-17T04:14:04.548Z,65.45
2018-07-17T04:16:33.640Z,66.52
2018-07-17T04:19:02.731Z,66.53
2018-07-17T04:21:31.832Z,65.66
2018-07-17T04:24:00.908Z,65.83
2018-07-17T04:26:30.009Z,66.60
2018-07-17T04:28:59.752Z,66.80
2018-07-17T04:31:28.879Z,66.45
2018-07-17T04:33:57.948Z,66.46
2018-07-17T04:36:27.052Z,67.61
2018-07-17T04:38:56.167Z,67.52
2018-07-17T04:41:25.292Z,67.79
2018-07-17T04:43:54.380Z,67.34
2018-07-17T04:46:23.481Z,66.78
2018-07-17T04:48:52.603Z,67.53
2018-07-17T04:51:21.676Z,66.31
2018-07-17T04:53:50.968Z,67.02
2018-07-17T04:56:19.992Z,66.18
2018-07-17T04:58:49.672Z,66.15
2018-07-17T05:01:18.840Z,66.33
2018-07-17T05:03:47.951Z,66.57
2018-07-17T05:06:17.033Z,66.86
2018-07-17T05:08:46.149Z,66.53
2018-07-17T05:11:15.584Z,66.89
2018-07-17T05:13:44.752Z,67.02
2018-07-17T05:16:13.874Z,66.79
2018-07-17T05:18:43.008Z,66.29
2018-07-17T05:21:12.149Z,66.33
2018-07-17T05:23:41.217Z,65.36
2018-07-17T05:26:10.288Z,64.92
2018-07-17T05:28:39.392Z,64.83
2018-07-17T05:31:08.488Z,65.18
2018-07-17T05:33:37.593Z,64.47
2018-07-17T05:36:07.123Z,64.25
2018-07-17T05:38:36.206Z,63.92
2018-07-17T05:41:05.304Z,63.69
2018-07-17T05:43:34.399Z,63.62
2018-07-17T05:46:03.508Z,63.75
2018-07-17T05:48:32.591Z,63.74
2018-07-17T05:51:01.707Z,62.92
2018-07-17T05:53:30.792Z,62.20
2018-07-17T05:55:59.895Z,61.75
2018-07-17T05:58:29.023Z,61.99
2018-07-17T06:00:58.120Z,61.81
2018-07-17T06:03:27.339Z,60.47
2018-07-17T06:05:56.375Z,59.64
2018-07-17T06:08:26.279Z,59.34
2018-07-17T06:10:55.380Z,59.03
2018-07-17T06:13:24.488Z,59.37
2018-07-17T06:15:53.622Z,59.06
2018-07-17T06:18:22.671Z,58.64
2018-07-17T06:20:51.785Z,57.69
2018-07-17T06:23:20.867Z,57.11
2018-07-17T06:25:49.981Z,56.98
2018-07-17T06:28:19.056Z,55.65
2018-07-17T06:30:48.175Z,55.76
2018-07-17T06:33:17.538Z,56.54
2018-07-17T06:35:46.692Z,55.48
2018-07-17T06:38:15.787Z,55.40
2018-07-17T06:40:44.879Z,55.02
2018-07-17T06:43:13.961Z,54.32
2018-07-17T06:45:43.068Z,55.33
2018-07-17T06:48:12.160Z,55.16
2018-07-17T06:50:41.346Z,55.79
2018-07-17T06:53:10.462Z,56.25
2018-07-17T06:55:39.568Z,55.72
2018-07-17T06:58:09.517Z,56.67
2018-07-17T07:00:39.455Z,56.18
2018-07-17T07:03:08.594Z,54.53
2018-07-17T07:05:37.725Z,54.15
2018-07-17T07:08:06.874Z,54.12
2018-07-17T07:10:35.970Z,53.87
2018-07-17T07:13:05.131Z,54.01
2018-07-17T07:15:34.232Z,53.38
2018-07-17T07:18:03.384Z,52.53
2018-07-17T07:20:32.483Z,53.17
2018-07-17T07:23:01.614Z,53.83
2018-07-17T07:25:30.736Z,52.33
2018-07-17T07:27:59.904Z,51.30
2018-07-17T07:30:28.998Z,52.28
2018-07-17T07:32:58.128Z,50.24
2018-07-17T07:35:27.228Z,51.14
2018-07-17T07:37:56.356Z,50.70
2018-07-17T07:40:25.492Z,50.20
2018-07-17T07:42:54.701Z,49.22
2018-07-17T07:45:23.753Z,49.14
2018-07-17T07:47:53.740Z,48.12
2018-07-17T07:50:22.836Z,47.67
2018-07-17T07:52:51.974Z,47.24
2018-07-17T07:55:21.092Z,47.97
2018-07-17T07:57:50.569Z,47.62
2018-07-17T08:00:19.676Z,48.22
2018-07-17T08:02:48.788Z,47.11
2018-07-17T08:05:17.877Z,47.63
2018-07-17T08:07:47.015Z,48.43
2018-07-17T08:10:16.127Z,48.23
2018-07-17T08:12:45.197Z,48.81
2018-07-17T08:15:14.338Z,48.46
2018-07-17T08:17:43.911Z,47.67
2018-07-17T08:20:13.011Z,45.33
2018-07-17T08:22:42.135Z,44.54
2018-07-17T08:25:11.225Z,44.51
2018-07-17T08:27:40.317Z,44.61
2018-07-17T08:30:09.423Z,44.33
2018-07-17T08:32:38.515Z,43.42
2018-07-17T08:35:07.616Z,44.57
2018-07-17T08:37:36.696Z,42.67
2018-07-17T08:40:05.828Z,43.65
2018-07-17T08:42:34.922Z,42.54
2018-07-17T08:45:04.051Z,42.52
2018-07-17T08:47:33.135Z,42.74
2018-07-17T08:50:02.237Z,42.50
2018-07-17T08:52:31.328Z,42.69
2018-07-17T08:55:00.464Z,42.51
2018-07-17T08:57:29.555Z,42.08
2018-07-17T08:59:58.782Z,40.88
2018-07-17T09:02:27.861Z,41.77
2018-07-17T09:04:56.955Z,40.02
2018-07-17T09:07:26.049Z,40.62
2018-07-17T09:09:55.399Z,39.73
2018-07-17T09:12:24.536Z,38.82
2018-07-17T09:14:53.648Z,38.58
2018-07-17T09:17:22.720Z,38.54
2018-07-17T09:19:51.839Z,37.52
2018-07-17T09:22:20.915Z,39.01
2018-07-17T09:24:50.012Z,38.84
2018-07-17T09:27:19.116Z,37.81
2018-07-17T09:29:48.241Z,37.16
2018-07-17T09:32:17.346Z,37.35
2018-07-17T09:34:46.441Z,36.10
2018-07-17T09:37:15.528Z,36.07
2018-07-17T09:39:44.793Z,35.47
2018-07-17T09:42:13.888Z,34.35
2018-07-17T09:44:42.980Z,35.39
2018-07-17T09:47:12.095Z,32.82
2018-07-17T09:49:41.787Z,32.93
2018-07-17T09:52:10.880Z,33.39
2018-07-17T09:54:39.975Z,33.74
2018-07-17T09:57:09.304Z,33.25
2018-07-17T09:59:38.443Z,33.56
2018-07-17T10:02:12.950Z,33.05
2018-07-17T10:04:42.176Z,31.50
2018-07-17T10:07:11.245Z,31.42
2018-07-17T10:09:40.316Z,31.50
2018-07-17T10:12:09.568Z,31.21
2018-07-17T10:14:38.811Z,30.94
2018-07-17T10:17:08.144Z,32.25
2018-07-17T10:19:37.486Z,30.38
2018-07-17T10:22:06.576Z,31.33
2018-07-17T10:24:35.693Z,30.24
2018-07-17T10:27:05.028Z,30.16
2018-07-17T10:29:34.244Z,30.77
2018-07-17T10:32:04.076Z,32.57
2018-07-17T10:34:33.258Z,31.39
2018-07-17T10:37:02.358Z,30.92
2018-07-17T10:39:31.598Z,29.02
2018-07-17T10:42:00.827Z,31.77
2018-07-17T10:44:29.896Z,30.28
2018-07-17T10:47:05.320Z,28.58
2018-07-17T10:49:34.408Z,29.36
2018-07-17T10:52:03.516Z,28.42
2018-07-17T10:54:32.636Z,29.63
2018-07-17T10:57:01.760Z,28.87
2018-07-17T10:59:30.868Z,28.69
2018-07-17T11:01:59.963Z,28.24
2018-07-17T11:04:29.055Z,29.09
2018-07-17T11:06:58.157Z,28.84
2018-07-17T11:09:27.256Z,29.03
2018-07-17T11:11:56.324Z,28.45
2018-07-17T11:14:25.428Z,29.67
2018-07-17T11:16:54.527Z,29.01
2018-07-17T11:19:23.613Z,27.08
2018-07-17T11:21:52.684Z,29.69
2018-07-17T11:24:21.800Z,28.73
2018-07-17T11:26:50.904Z,26.89
2018-07-17T11:29:20.028Z,28.46
2018-07-17T11:31:49.113Z,30.12
2018-07-17T11:34:18.212Z,28.32
2018-07-17T11:36:47.300Z,26.52
2018-07-17T11:39:17.206Z,27.52
2018-07-17T11:41:46.292Z,27.83
2018-07-17T11:44:15.448Z,27.86
2018-07-17T11:46:44.515Z,28.03
2018-07-17T11:49:13.655Z,30.04
2018-07-17T11:51:42.740Z,27.44
2018-07-17T11:54:11.860Z,26.83
2018-07-17T11:56:40.932Z,28.21
2018-07-17T11:59:10.183Z,27.44
2018-07-17T12:01:39.168Z,28.20
2018-07-17T12:04:09.260Z,27.09
2018-07-17T12:06:38.347Z,26.38
2018-07-17T12:09:08.105Z,26.73
2018-07-17T12:11:37.176Z,27.60
2018-07-17T12:14:06.284Z,27.39
2018-07-17T12:16:35.420Z,27.63
2018-07-17T12:19:04.540Z,27.23
2018-07-17T12:21:33.648Z,29.43
2018-07-17T12:24:02.719Z,28.23
2018-07-17T12:26:31.812Z,29.13
2018-07-17T12:29:00.888Z,27.41
2018-07-17T12:31:30.037Z,26.72
2018-07-17T12:33:59.100Z,28.60
2018-07-17T12:36:28.219Z,26.92
2018-07-17T12:38:57.288Z,25.28
2018-07-17T12:41:26.419Z,25.93
2018-07-17T12:43:55.488Z,25.97
2018-07-17T12:46:24.596Z,27.21
2018-07-17T12:48:53.664Z,25.43
2018-07-17T12:51:22.779Z,26.79
2018-07-17T12:53:51.876Z,26.32
2018-07-17T12:56:21.021Z,26.07
2018-07-17T12:58:50.504Z,24.90
2018-07-17T13:01:19.618Z,25.77
2018-07-17T13:03:48.804Z,26.80
2018-07-17T13:06:17.888Z,26.23
2018-07-17T13:08:47.248Z,24.81
2018-07-17T13:11:16.341Z,24.00
2018-07-17T13:13:45.418Z,27.23
2018-07-17T13:16:14.551Z,25.47
2018-07-17T13:18:43.625Z,25.39
2018-07-17T13:21:12.732Z,24.79
2018-07-17T13:23:41.850Z,24.85
2018-07-17T13:26:10.940Z,25.65
2018-07-17T13:28:40.025Z,25.40
2018-07-17T13:31:09.135Z,25.38
2018-07-17T13:33:38.248Z,24.70
2018-07-17T13:36:07.423Z,25.68
2018-07-17T13:38:36.496Z,26.51
2018-07-17T13:41:05.633Z,26.29
2018-07-17T13:43:34.748Z,26.33
2018-07-17T13:46:04.072Z,25.38
2018-07-17T13:48:33.407Z,25.87
2018-07-17T13:51:02.479Z,27.42
2018-07-17T13:53:31.572Z,25.54
2018-07-17T13:56:00.651Z,27.84
2018-07-17T13:58:29.760Z,28.00
2018-07-17T14:00:58.836Z,28.21
2018-07-17T14:03:28.020Z,27.22
2018-07-17T14:05:57.711Z,28.22
2018-07-17T14:08:26.831Z,28.26
2018-07-17T14:10:55.889Z,27.83
2018-07-17T14:13:24.981Z,28.28
2018-07-17T14:15:54.048Z,29.27
2018-07-17T14:18:23.152Z,28.59
2018-07-17T14:20:52.251Z,28.09
2018-07-17T14:23:21.350Z,27.71
2018-07-17T14:25:50.412Z,27.33
2018-07-17T14:28:19.508Z,27.74
2018-07-17T14:30:48.604Z,28.48
2018-07-17T14:33:17.718Z,29.45
2018-07-17T14:35:46.803Z,29.17
2018-07-17T14:38:15.913Z,28.59
2018-07-17T14:40:44.992Z,26.97
2018-07-17T14:43:14.088Z,28.20
2018-07-17T14:45:43.163Z,28.08
2018-07-17T14:48:12.308Z,27.22
2018-07-17T14:50:41.336Z,29.02
2018-07-17T14:53:10.405Z,27.58
2018-07-17T14:55:39.588Z,26.33
2018-07-17T14:58:08.626Z,28.39
2018-07-17T15:00:37.749Z,28.24
2018-07-17T15:03:06.828Z,27.86
2018-07-17T15:05:35.941Z,27.58
2018-07-17T15:08:05.015Z,28.10
2018-07-17T15:10:34.112Z,27.86
2018-07-17T15:13:03.216Z,27.15
2018-07-17T15:15:32.367Z,27.25
2018-07-17T15:18:01.384Z,27.83
2018-07-17T15:20:30.481Z,28.31
2018-07-17T15:22:59.590Z,26.83
2018-07-17T15:25:28.691Z,27.72
2018-07-17T15:27:57.794Z,28.22
2018-07-17T15:30:26.868Z,28.08
2018-07-17T15:32:55.956Z,28.47
2018-07-17T15:35:25.101Z,27.57
2018-07-17T15:37:54.184Z,27.82
2018-07-17T15:40:23.316Z,28.32
2018-07-17T15:42:52.411Z,28.03
2018-07-17T15:45:21.535Z,28.64
2018-07-17T15:47:50.595Z,27.92
2018-07-17T15:50:19.685Z,27.88
2018-07-17T15:52:48.793Z,28.76
2018-07-17T15:55:17.905Z,29.18
2018-07-17T15:57:47.005Z,29.15
2018-07-17T16:00:16.152Z,28.79
2018-07-17T16:02:45.256Z,28.69
2018-07-17T16:05:14.341Z,28.43
2018-07-17T16:07:43.441Z,28.37
2018-07-17T16:10:12.531Z,28.96
2018-07-17T16:12:41.624Z,29.35
2018-07-17T16:15:10.700Z,28.79
2018-07-17T16:17:39.831Z,29.73
2018-07-17T16:20:09.269Z,28.59
2018-07-17T16:22:38.327Z,29.63
2018-07-17T16:25:07.646Z,29.54
2018-07-17T16:27:37.392Z,29.67
2018-07-17T16:30:07.271Z,29.49
2018-07-17T16:32:36.379Z,29.78
2018-07-17T16:35:05.483Z,30.09
2018-07-17T16:37:34.576Z,30.35
2018-07-17T16:40:03.717Z,30.66
2018-07-17T16:42:32.835Z,30.23
2018-07-17T16:45:01.913Z,29.50
2018-07-17T16:47:31.020Z,30.61
2018-07-17T16:50:00.092Z,29.13
2018-07-17T16:52:29.357Z,29.01
2018-07-17T16:54:58.461Z,28.95
2018-07-17T16:57:27.548Z,30.61
2018-07-17T16:59:56.668Z,30.84
2018-07-17T17:02:25.800Z,30.22
2018-07-17T17:04:54.932Z,31.03
2018-07-17T17:07:24.028Z,31.41
2018-07-17T17:09:53.264Z,31.37
2018-07-17T17:12:22.332Z,30.79
2018-07-17T17:14:51.451Z,31.04
2018-07-17T17:17:20.512Z,30.68
2018-07-17T17:19:49.616Z,31.11
2018-07-17T17:22:18.688Z,31.34
2018-07-17T17:24:47.813Z,32.66
2018-07-17T17:27:16.888Z,32.24
2018-07-17T17:29:45.981Z,32.83
2018-07-17T17:32:15.084Z,32.33
2018-07-17T17:34:44.184Z,33.56
2018-07-17T17:37:13.303Z,33.55
2018-07-17T17:39:42.444Z,34.31
2018-07-17T17:42:11.495Z,34.14
2018-07-17T17:44:40.584Z,34.08
2018-07-17T17:47:09.668Z,33.87
2018-07-17T17:49:38.880Z,34.34
2018-07-17T17:52:08.000Z,34.34
2018-07-17T17:54:37.124Z,34.81
2018-07-17T17:57:06.247Z,34.77
2018-07-17T17:59:35.370Z,34.51
2018-07-17T18:02:04.506Z,35.25
2018-07-17T18:04:33.798Z,35.28
2018-07-17T18:07:02.891Z,34.71
2018-07-17T18:09:31.983Z,36.56
2018-07-17T18:12:01.124Z,35.99
2018-07-17T18:14:30.333Z,35.36
2018-07-17T18:16:59.471Z,35.48
2018-07-17T18:19:28.540Z,35.85
2018-07-17T18:21:57.661Z,36.08
2018-07-17T18:24:26.795Z,35.48
2018-07-17T18:26:56.063Z,35.13
2018-07-17T18:29:25.106Z,35.79
2018-07-17T18:31:54.221Z,35.42
2018-07-17T18:34:23.317Z,37.19
2018-07-17T18:36:52.416Z,38.12
2018-07-17T18:39:21.540Z,39.08
2018-07-17T18:41:50.684Z,39.55
2018-07-17T18:44:19.740Z,40.53
2018-07-17T18:46:48.871Z,41.46
2018-07-17T18:49:17.980Z,41.79
2018-07-17T18:51:47.849Z,41.81
2018-07-17T18:54:16.916Z,41.63
2018-07-17T18:56:46.025Z,42.59
2018-07-17T18:59:15.115Z,43.06
2018-07-17T19:01:44.216Z,42.90
2018-07-17T19:04:13.337Z,42.89
2018-07-17T19:06:42.413Z,43.07
2018-07-17T19:09:11.524Z,43.81
2018-07-17T19:11:40.760Z,43.77
2018-07-17T19:14:09.832Z,44.45
2018-07-17T19:16:39.787Z,45.66
2018-07-17T19:19:08.859Z,45.40
2018-07-17T19:21:37.972Z,45.81
2018-07-17T19:24:07.065Z,45.42
2018-07-17T19:26:36.148Z,45.99
2018-07-17T19:29:05.282Z,46.54
2018-07-17T19:31:34.320Z,46.42
2018-07-17T19:34:03.428Z,46.63
2018-07-17T19:36:32.555Z,46.12
2018-07-17T19:39:01.606Z,46.47
2018-07-17T19:41:30.704Z,47.18
2018-07-17T19:43:59.823Z,46.68
2018-07-17T19:46:28.896Z,47.41
2018-07-17T19:48:58.024Z,47.44
2018-07-17T19:51:27.135Z,47.27
2018-07-17T19:53:56.220Z,47.11
2018-07-17T19:56:25.485Z,47.35
2018-07-17T19:58:54.609Z,47.16
2018-07-17T20:01:23.716Z,48.30
2018-07-17T20:03:52.820Z,48.54
2018-07-17T20:06:21.884Z,48.02
2018-07-17T20:08:51.005Z,48.25
2018-07-17T20:11:20.088Z,49.47
2018-07-17T20:13:49.206Z,48.88
2018-07-17T20:16:18.290Z,49.60
2018-07-17T20:18:47.387Z,49.33
2018-07-17T20:21:16.476Z,49.77
2018-07-17T20:23:45.565Z,49.60
2018-07-17T20:26:14.623Z,49.79
2018-07-17T20:28:43.724Z,50.41
2018-07-17T20:31:12.843Z,50.43
2018-07-17T20:33:41.966Z,49.77
2018-07-17T20:36:11.031Z,49.63
2018-07-17T20:38:40.100Z,50.19
2018-07-17T20:41:09.196Z,50.45
2018-07-17T20:43:38.285Z,49.68
2018-07-17T20:46:07.400Z,49.90
2018-07-17T20:48:36.460Z,50.35
2018-07-17T20:51:05.563Z,51.04
2018-07-17T20:53:35.271Z,50.42
2018-07-17T20:56:04.384Z,50.91
2018-07-17T20:58:33.550Z,51.67
2018-07-17T21:01:02.619Z,51.39
2018-07-17T21:03:32.000Z,51.59
2018-07-17T21:06:01.144Z,51.72
2018-07-17T21:08:30.213Z,51.89
2018-07-17T21:10:59.451Z,52.86
2018-07-17T21:13:28.508Z,52.20
2018-07-17T21:15:57.615Z,52.62
2018-07-17T21:18:26.672Z,52.41
2018-07-17T21:20:55.795Z,53.20
2018-07-17T21:23:24.883Z,53.53
2018-07-17T21:25:53.975Z,53.24
2018-07-17T21:28:23.176Z,53.86
2018-07-17T21:30:52.288Z,54.50
2018-07-17T21:33:21.387Z,53.91
2018-07-17T21:35:50.462Z,54.66
2018-07-17T21:38:19.592Z,53.98
2018-07-17T21:40:48.688Z,54.48
2018-07-17T21:43:17.964Z,54.55
2018-07-17T21:45:47.039Z,54.40
2018-07-17T21:48:16.156Z,54.84
2018-07-17T21:50:45.236Z,55.14
2018-07-17T21:53:14.378Z,56.17
2018-07-17T21:55:43.537Z,55.93
2018-07-17T21:58:12.685Z,56.62
2018-07-17T22:00:41.781Z,56.17
2018-07-17T22:03:10.916Z,57.30
2018-07-17T22:05:40.039Z,57.41
2018-07-17T22:08:09.065Z,57.87
2018-07-17T22:10:38.140Z,58.05
2018-07-17T22:13:07.248Z,57.71
2018-07-17T22:15:36.319Z,58.22
2018-07-17T22:18:05.674Z,58.06
2018-07-17T22:20:34.746Z,58.41
2018-07-17T22:23:03.887Z,58.47
2018-07-17T22:25:32.980Z,59.12
2018-07-17T22:28:02.152Z,58.84
2018-07-17T22:30:31.173Z,58.75
2018-07-17T22:33:00.279Z,58.83
2018-07-17T22:35:29.475Z,59.43
2018-07-17T22:37:58.668Z,59.44
2018-07-17T22:40:28.033Z,59.43
2018-07-17T22:42:57.176Z,59.51
2018-07-17T22:45:26.524Z,59.67
2018-07-17T22:47:55.701Z,59.38
2018-07-17T22:50:24.828Z,59.93
2018-07-17T22:52:54.099Z,60.20
2018-07-17T22:55:23.223Z,59.93
2018-07-17T22:57:52.431Z,60.78
2018-07-17T23:00:21.584Z,60.26
2018-07-17T23:02:50.720Z,59.99
2018-07-17T23:05:19.837Z,61.67
2018-07-17T23:07:48.939Z,61.42
2018-07-17T23:10:18.028Z,61.86
2018-07-17T23:12:47.106Z,62.85
2018-07-17T23:15:16.338Z,62.91
2018-07-17T23:17:45.539Z,62.72
2018-07-17T23:20:14.691Z,62.51
2018-07-17T23:22:57.039Z,62.37
2018-07-17T23:25:27.365Z,62.39
2018-07-17T23:27:57.152Z,62.38
2018-07-17T23:30:26.277Z,62.49
2018-07-17T23:32:55.407Z,62.69
2018-07-17T23:35:25.211Z,63.07
2018-07-17T23:37:54.601Z,63.22
2018-07-17T23:40:23.872Z,63.73
2018-07-17T23:42:52.980Z,64.06
2018-07-17T23:45:22.096Z,64.30
2018-07-17T23:47:51.199Z,64.16
2018-07-17T23:50:20.288Z,64.54
2018-07-17T23:52:49.397Z,64.57
2018-07-17T23:55:18.492Z,65.21
2018-07-17T23:57:47.724Z,65.11
